Time;durP1;ratioP1;P1;durP2;ratioP2;P2;SDS_P1;SDS_P2;PMS_P1;PMS_P2;Temp;Humidity;BMP_temperature;BMP_pressure;BME280_temperature;BME280_humidity;BME280_pressure;Samples;Min_cycle;Max_cycle;Signal;HPM_P1;HPM_P2
2023/03/16 00:01:46;;;;;;;5.43;5.03;;;1.00;73.00;;;;;;6301971;28;20705;-84
2023/03/16 00:04:49;;;;;;;7.97;4.77;;;1.00;73.20;;;;;;6298682;28;20249;-86
2023/03/16 00:07:52;;;;;;;5.40;4.93;;;1.00;73.00;;;;;;6295789;28;20370;-83
2023/03/16 00:10:55;;;;;;;5.30;5.00;;;1.00;72.90;;;;;;6288772;28;20720;-83
2023/03/16 00:14:03;;;;;;;5.17;4.73;;;1.00;72.90;;;;;;6286819;28;20312;-84
2023/03/16 00:17:06;;;;;;;9.47;5.03;;;1.00;72.80;;;;;;6288718;28;20226;-83
2023/03/16 00:20:12;;;;;;;8.00;5.47;;;1.00;72.80;;;;;;6284663;28;20232;-82
2023/03/16 00:23:15;;;;;;;5.13;4.63;;;1.00;72.80;;;;;;6283868;28;20239;-83
2023/03/16 00:26:19;;;;;;;5.57;4.83;;;1.00;72.40;;;;;;6287459;28;20233;-83
2023/03/16 00:29:23;;;;;;;7.70;4.57;;;1.00;72.40;;;;;;6288070;28;20235;-83
2023/03/16 00:32:29;;;;;;;5.20;4.83;;;1.00;72.50;;;;;;6288943;28;20241;-84
2023/03/16 00:35:33;;;;;;;5.60;5.10;;;1.00;72.50;;;;;;6281097;28;20234;-84
2023/03/16 00:38:43;;;;;;;5.00;4.70;;;0.90;72.50;;;;;;6282696;28;20889;-83
2023/03/16 00:41:47;;;;;;;4.90;4.50;;;0.80;72.50;;;;;;6287832;28;20248;-82
2023/03/16 00:44:55;;;;;;;5.33;4.93;;;0.80;72.20;;;;;;6276117;28;20238;-85
2023/03/16 00:47:59;;;;;;;6.33;4.97;;;0.80;72.20;;;;;;6272540;28;20225;-83
2023/03/16 00:51:03;;;;;;;7.03;5.27;;;0.90;71.90;;;;;;6288113;28;20249;-83
2023/03/16 00:54:06;;;;;;;5.17;4.50;;;0.90;71.70;;;;;;6291627;27;20782;-83
2023/03/16 00:57:12;;;;;;;4.77;4.37;;;0.80;71.60;;;;;;6288921;28;20229;-84
2023/03/16 01:00:19;;;;;;;8.10;5.23;;;0.80;71.60;;;;;;6287718;28;20237;-82
2023/03/16 01:03:23;;;;;;;5.03;4.50;;;0.80;71.50;;;;;;6287692;28;20229;-84
2023/03/16 01:06:26;;;;;;;6.77;4.73;;;0.80;71.40;;;;;;6273286;28;20249;-84
2023/03/16 01:09:29;;;;;;;5.17;4.77;;;0.80;71.40;;;;;;6273594;28;20233;-83
2023/03/16 01:12:33;;;;;;;6.90;5.43;;;0.80;71.40;;;;;;6285967;28;20719;-84
2023/03/16 01:15:37;;;;;;;4.60;4.27;;;0.80;71.30;;;;;;6286930;28;20236;-84
2023/03/16 01:18:41;;;;;;;5.03;4.53;;;0.80;71.30;;;;;;6287238;28;20233;-84
2023/03/16 01:21:44;;;;;;;5.17;4.77;;;0.70;71.30;;;;;;6292223;28;20241;-84
2023/03/16 01:24:48;;;;;;;5.80;4.40;;;0.70;71.40;;;;;;6287663;28;20236;-84
2023/03/16 01:27:52;;;;;;;5.53;4.93;;;0.60;71.30;;;;;;6287738;28;20629;-83
2023/03/16 01:31:04;;;;;;;4.77;4.43;;;0.70;71.20;;;;;;6287435;28;20240;-84
2023/03/16 01:34:07;;;;;;;8.27;4.90;;;0.70;71.10;;;;;;6270681;28;20268;-83
2023/03/16 01:37:12;;;;;;;4.97;4.57;;;0.80;70.80;;;;;;6289182;28;20244;-82
2023/03/16 01:40:16;;;;;;;4.77;4.40;;;0.80;70.80;;;;;;6289342;28;20236;-83
2023/03/16 01:43:20;;;;;;;4.87;4.67;;;0.70;70.90;;;;;;6287088;28;20255;-83
2023/03/16 01:46:26;;;;;;;5.07;4.67;;;0.70;70.90;;;;;;6287025;28;20257;-83
2023/03/16 01:49:32;;;;;;;5.37;4.53;;;0.60;71.10;;;;;;6288117;28;20273;-84
2023/03/16 01:52:37;;;;;;;5.13;4.77;;;0.60;70.90;;;;;;6295845;28;20237;-84
2023/03/16 01:55:42;;;;;;;7.30;4.50;;;0.60;71.00;;;;;;6287355;28;20230;-83
2023/03/16 01:58:46;;;;;;;8.13;5.10;;;0.60;70.90;;;;;;6293970;28;20704;-84
2023/03/16 02:01:55;;;;;;;5.43;5.00;;;0.60;70.90;;;;;;6288422;28;20256;-83
2023/03/16 02:05:02;;;;;;;6.97;5.47;;;0.60;70.90;;;;;;6295137;28;20845;-84
2023/03/16 02:08:06;;;;;;;5.63;4.17;;;0.60;70.90;;;;;;6300851;28;20225;-83
2023/03/16 02:11:17;;;;;;;6.20;5.67;;;0.60;70.80;;;;;;6275423;28;20238;-83
2023/03/16 02:14:20;;;;;;;5.53;4.83;;;0.50;70.90;;;;;;6255596;28;20808;-83
2023/03/16 02:17:30;;;;;;;6.63;4.53;;;0.50;70.90;;;;;;6287231;28;20233;-84
2023/03/16 02:20:42;;;;;;;8.43;5.83;;;0.50;71.00;;;;;;6285846;28;20732;-84
2023/03/16 02:23:46;;;;;;;6.07;4.17;;;0.50;71.00;;;;;;6292503;28;20241;-84
2023/03/16 02:26:54;;;;;;;6.50;5.47;;;0.50;70.90;;;;;;6308460;28;20214;-84
2023/03/16 02:30:07;;;;;;;5.73;5.23;;;0.50;70.80;;;;;;6328721;28;20255;-81
2023/03/16 02:33:12;;;;;;;5.30;4.87;;;0.50;70.80;;;;;;6320537;28;20225;-83
2023/03/16 02:36:18;;;;;;;4.80;4.43;;;0.50;70.90;;;;;;6307999;28;20285;-82
2023/03/16 02:39:22;;;;;;;4.93;4.63;;;0.50;70.80;;;;;;6331028;28;20324;-83
2023/03/16 02:42:26;;;;;;;5.43;4.57;;;0.50;70.70;;;;;;6317804;28;20765;-83
2023/03/16 02:45:35;;;;;;;4.93;4.53;;;0.40;70.80;;;;;;6307988;28;20240;-84
2023/03/16 02:48:44;;;;;;;6.40;5.03;;;0.40;70.90;;;;;;6294342;28;20230;-83
2023/03/16 02:51:47;;;;;;;5.23;4.60;;;0.40;70.90;;;;;;6291165;28;20318;-84
2023/03/16 02:54:50;;;;;;;4.97;4.57;;;0.40;70.90;;;;;;6299607;28;20243;-85
2023/03/16 02:57:54;;;;;;;5.30;4.90;;;0.30;70.90;;;;;;6298371;28;20331;-84
2023/03/16 03:00:59;;;;;;;4.73;4.40;;;0.40;70.80;;;;;;6297020;28;20248;-84
2023/03/16 03:04:02;;;;;;;5.63;5.17;;;0.40;70.70;;;;;;6304957;28;20221;-82
2023/03/16 03:07:05;;;;;;;4.93;4.73;;;0.40;70.70;;;;;;6310172;28;20231;-84
2023/03/16 03:10:10;;;;;;;7.97;5.13;;;0.40;70.80;;;;;;6318305;28;20233;-80
2023/03/16 03:13:13;;;;;;;6.87;4.90;;;0.30;70.80;;;;;;6321936;28;20281;-82
2023/03/16 03:16:20;;;;;;;5.40;4.90;;;0.30;70.90;;;;;;6320649;27;20245;-81
2023/03/16 03:19:23;;;;;;;6.10;5.60;;;0.20;71.00;;;;;;6290825;27;20305;-83
2023/03/16 03:22:28;;;;;;;5.37;4.33;;;0.20;71.00;;;;;;6289410;28;20817;-83
2023/03/16 03:25:34;;;;;;;5.63;5.13;;;0.10;71.20;;;;;;6300062;28;20273;-82
2023/03/16 03:28:37;;;;;;;5.23;4.90;;;0.10;71.20;;;;;;6302188;28;20234;-84
2023/03/16 03:31:42;;;;;;;4.53;4.30;;;0.00;71.20;;;;;;6297959;28;20321;-83
2023/03/16 03:34:45;;;;;;;4.87;4.57;;;0.00;71.30;;;;;;6289516;28;20840;-83
2023/03/16 03:37:49;;;;;;;5.43;4.93;;;0.00;71.40;;;;;;6287658;28;20339;-84
2023/03/16 03:40:53;;;;;;;6.00;5.40;;;0.00;71.50;;;;;;6294897;28;20237;-84
2023/03/16 03:43:56;;;;;;;8.70;5.00;;;0.00;71.50;;;;;;6289694;28;20245;-85
2023/03/16 03:47:04;;;;;;;4.93;4.53;;;0.00;71.50;;;;;;6276650;28;20233;-83
2023/03/16 03:50:09;;;;;;;7.00;4.80;;;0.00;71.50;;;;;;6276401;28;20233;-83
2023/03/16 03:53:12;;;;;;;6.90;4.83;;;0.00;71.50;;;;;;6280474;28;20828;-81
2023/03/16 03:56:16;;;;;;;4.70;4.30;;;-0.10;71.60;;;;;;6287925;28;20233;-83
2023/03/16 03:59:19;;;;;;;6.10;5.17;;;-0.10;71.60;;;;;;6287459;28;20719;-83
2023/03/16 04:02:23;;;;;;;4.83;4.53;;;-0.10;71.70;;;;;;6288741;28;20229;-85
2023/03/16 04:05:27;;;;;;;5.67;5.10;;;-0.10;71.60;;;;;;6284840;28;20264;-84
2023/03/16 04:08:30;;;;;;;5.00;4.70;;;-0.10;71.70;;;;;;6295319;28;20239;-84
2023/03/16 04:11:34;;;;;;;6.27;5.00;;;-0.10;71.80;;;;;;6287891;28;20254;-83
2023/03/16 04:14:37;;;;;;;5.00;4.80;;;-0.20;71.80;;;;;;6289336;28;20724;-82
2023/03/16 04:17:42;;;;;;;5.43;4.97;;;-0.20;71.90;;;;;;6287468;28;20259;-83
2023/03/16 04:20:45;;;;;;;5.60;5.07;;;-0.20;71.80;;;;;;6285248;28;20248;-84
2023/03/16 04:23:53;;;;;;;5.50;5.10;;;-0.20;71.80;;;;;;6281460;28;20229;-85
2023/03/16 04:26:56;;;;;;;6.10;5.50;;;-0.20;71.90;;;;;;6293870;28;20232;-86
2023/03/16 04:29:59;;;;;;;5.57;5.07;;;-0.10;71.80;;;;;;6290446;28;20249;-81
2023/03/16 04:33:04;;;;;;;6.43;5.27;;;-0.10;71.80;;;;;;6279912;28;20245;-83
2023/03/16 04:36:09;;;;;;;8.47;5.50;;;-0.20;71.90;;;;;;6282287;28;20234;-83
2023/03/16 04:39:12;;;;;;;5.50;4.97;;;-0.20;71.90;;;;;;6273460;28;20245;-83
2023/03/16 04:42:15;;;;;;;8.17;5.60;;;-0.20;72.00;;;;;;6266568;28;20237;-83
2023/03/16 04:45:19;;;;;;;8.77;5.63;;;-0.20;71.90;;;;;;6271418;28;20222;-83
2023/03/16 04:48:24;;;;;;;6.17;5.47;;;-0.20;71.80;;;;;;6271509;28;20720;-84
2023/03/16 04:51:28;;;;;;;6.40;5.83;;;-0.20;71.90;;;;;;6283244;28;20320;-79
2023/03/16 04:54:32;;;;;;;6.27;5.77;;;-0.20;71.80;;;;;;6280074;28;20241;-77
2023/03/16 04:57:35;;;;;;;6.40;5.73;;;-0.10;71.70;;;;;;6287645;28;20237;-79
2023/03/16 05:00:38;;;;;;;5.83;5.40;;;-0.10;71.50;;;;;;6287746;28;20241;-78
2023/03/16 05:03:43;;;;;;;6.33;5.53;;;-0.10;71.50;;;;;;6280785;28;20238;-79
2023/03/16 05:06:46;;;;;;;12.50;5.80;;;-0.20;71.50;;;;;;6267098;28;20854;-79
2023/03/16 05:09:49;;;;;;;14.00;6.87;;;-0.20;71.40;;;;;;6270687;28;20245;-80
2023/03/16 05:12:52;;;;;;;7.63;5.73;;;-0.20;71.20;;;;;;6275521;28;20621;-79
2023/03/16 05:15:55;;;;;;;7.17;6.17;;;-0.20;71.40;;;;;;6284238;28;20244;-81
2023/03/16 05:19:00;;;;;;;9.17;5.93;;;-0.20;71.50;;;;;;6286633;28;20237;-78
2023/03/16 05:22:03;;;;;;;9.83;6.33;;;-0.30;71.40;;;;;;6274594;28;20241;-80
2023/03/16 05:25:07;;;;;;;9.43;6.80;;;-0.30;71.70;;;;;;6279452;28;20617;-78
2023/03/16 05:28:11;;;;;;;6.97;6.37;;;-0.30;71.80;;;;;;6278447;28;20233;-77
2023/03/16 05:31:14;;;;;;;7.03;6.33;;;-0.30;71.80;;;;;;6272621;28;20238;-78
2023/03/16 05:34:19;;;;;;;7.13;6.43;;;-0.40;71.70;;;;;;6259418;28;20830;-80
2023/03/16 05:37:23;;;;;;;7.03;6.50;;;-0.40;71.90;;;;;;6267235;28;20234;-78
2023/03/16 05:40:26;;;;;;;7.37;6.73;;;-0.40;72.00;;;;;;6281673;28;20290;-79
2023/03/16 05:43:30;;;;;;;7.83;6.30;;;-0.30;71.90;;;;;;6285236;28;20624;-77
2023/03/16 05:46:33;;;;;;;6.83;6.23;;;-0.30;71.90;;;;;;6285217;28;20244;-78
2023/03/16 05:49:38;;;;;;;7.13;6.43;;;-0.30;71.90;;;;;;6290151;28;20800;-81
2023/03/16 05:52:41;;;;;;;6.47;5.97;;;-0.30;72.00;;;;;;6292159;28;20228;-78
2023/03/16 05:55:44;;;;;;;9.77;7.03;;;-0.30;72.00;;;;;;6288920;27;20241;-79
2023/03/16 05:58:47;;;;;;;7.33;6.77;;;-0.30;71.80;;;;;;6270804;28;20957;-79
2023/03/16 06:01:50;;;;;;;7.57;6.87;;;-0.20;71.60;;;;;;6295827;28;20233;-80
2023/03/16 06:04:54;;;;;;;7.20;6.70;;;-0.20;71.60;;;;;;6282053;28;20590;-80
2023/03/16 06:07:57;;;;;;;6.90;6.40;;;-0.10;71.60;;;;;;6272232;28;20229;-80
2023/03/16 06:11:00;;;;;;;9.57;6.77;;;-0.10;71.60;;;;;;6281592;27;20656;-78
2023/03/16 06:14:04;;;;;;;6.37;5.80;;;-0.10;71.60;;;;;;6285775;28;20427;-80
2023/03/16 06:17:07;;;;;;;7.77;7.13;;;-0.10;71.60;;;;;;6285097;28;20234;-80
2023/03/16 06:20:13;;;;;;;6.70;6.10;;;0.00;71.50;;;;;;6266969;28;22699;-80
2023/03/16 06:23:19;;;;;;;6.67;6.17;;;0.00;71.40;;;;;;6279172;28;20238;-79
2023/03/16 06:26:22;;;;;;;6.17;5.70;;;0.10;70.90;;;;;;6267335;28;20264;-77
2023/03/16 06:29:25;;;;;;;9.03;6.60;;;0.10;70.60;;;;;;6276026;28;20226;-81
2023/03/16 06:32:28;;;;;;;6.83;6.33;;;0.20;70.50;;;;;;6252174;27;20248;-78
2023/03/16 06:35:33;;;;;;;12.37;7.23;;;0.30;70.10;;;;;;6283553;28;20243;-80
2023/03/16 06:38:36;;;;;;;8.03;7.33;;;0.40;69.70;;;;;;6294831;28;20242;-84
2023/03/16 06:41:41;;;;;;;8.80;6.90;;;0.60;69.60;;;;;;6289317;28;20328;-79
2023/03/16 06:44:44;;;;;;;7.80;6.50;;;1.00;69.10;;;;;;6274087;28;20234;-80
2023/03/16 06:47:48;;;;;;;8.93;7.27;;;1.40;67.30;;;;;;6275930;28;20229;-81
2023/03/16 06:50:52;;;;;;;7.30;6.60;;;1.40;67.00;;;;;;6287233;28;20306;-82
2023/03/16 06:53:55;;;;;;;10.37;6.77;;;1.40;66.60;;;;;;6282353;28;20364;-80
2023/03/16 06:56:58;;;;;;;10.57;6.80;;;1.50;66.50;;;;;;6275936;28;20843;-79
2023/03/16 07:00:03;;;;;;;7.07;6.43;;;1.60;65.80;;;;;;6273483;28;20229;-79
2023/03/16 07:03:06;;;;;;;6.57;5.97;;;1.50;65.90;;;;;;6288176;28;20240;-81
2023/03/16 07:06:11;;;;;;;7.97;6.80;;;1.60;65.80;;;;;;6282045;28;20798;-81
2023/03/16 07:09:14;;;;;;;7.93;6.53;;;1.70;65.30;;;;;;6274489;28;20463;-80
2023/03/16 07:12:17;;;;;;;10.80;7.10;;;1.70;65.60;;;;;;6278918;28;20232;-81
2023/03/16 07:15:20;;;;;;;7.93;6.90;;;1.70;65.00;;;;;;6287584;28;20244;-80
2023/03/16 07:18:24;;;;;;;7.17;6.57;;;1.80;64.80;;;;;;6273951;28;20368;-80
2023/03/16 07:21:30;;;;;;;8.10;7.03;;;1.90;64.70;;;;;;6280746;28;20807;-81
2023/03/16 07:24:34;;;;;;;9.57;6.93;;;2.00;64.10;;;;;;6284549;28;20640;-80
2023/03/16 07:27:37;;;;;;;9.60;6.07;;;2.10;64.60;;;;;;6282990;28;20233;-80
2023/03/16 07:30:40;;;;;;;11.70;6.00;;;3.00;64.50;;;;;;6270134;28;20229;-79
2023/03/16 07:34:03;;;;;;;5.90;5.40;;;3.70;61.20;;;;;;6274959;28;20321;-82
2023/03/16 07:37:08;;;;;;;9.73;5.50;;;3.70;60.20;;;;;;6282201;28;20229;-78
2023/03/16 07:40:13;;;;;;;5.27;4.90;;;3.50;60.30;;;;;;6289077;28;20242;-81
2023/03/16 07:43:16;;;;;;;5.77;5.33;;;3.30;60.80;;;;;;6264769;28;20356;-81
2023/03/16 07:46:19;;;;;;;5.40;5.10;;;3.10;60.90;;;;;;6265233;28;20254;-81
2023/03/16 07:49:23;;;;;;;5.53;5.03;;;3.10;61.40;;;;;;6259995;28;20253;-80
2023/03/16 07:52:27;;;;;;;8.43;6.07;;;3.10;60.50;;;;;;6252681;28;20257;-81
2023/03/16 07:55:31;;;;;;;6.17;5.57;;;3.20;60.70;;;;;;6279481;28;20280;-81
2023/03/16 07:58:34;;;;;;;6.17;5.23;;;3.10;60.00;;;;;;6263239;28;20730;-82
2023/03/16 08:01:37;;;;;;;6.20;5.70;;;3.30;59.60;;;;;;6275179;28;20648;-82
2023/03/16 08:04:42;;;;;;;6.53;5.77;;;3.40;59.70;;;;;;6290185;28;20739;-81
2023/03/16 08:07:47;;;;;;;9.80;5.70;;;3.50;59.70;;;;;;6272625;28;20297;-82
2023/03/16 08:10:52;;;;;;;6.23;5.30;;;3.50;60.00;;;;;;6274699;28;20316;-81
2023/03/16 08:13:58;;;;;;;8.20;5.80;;;3.60;59.40;;;;;;6265702;28;20230;-81
2023/03/16 08:17:06;;;;;;;8.63;4.77;;;3.70;59.30;;;;;;6276348;27;20380;-79
2023/03/16 08:20:13;;;;;;;5.27;4.93;;;3.70;59.20;;;;;;6282046;28;20238;-82
2023/03/16 08:23:19;;;;;;;5.03;4.70;;;3.90;58.50;;;;;;6262580;28;20236;-82
2023/03/16 08:26:23;;;;;;;5.20;4.70;;;4.00;58.10;;;;;;6267035;28;20249;-82
2023/03/16 08:29:26;;;;;;;8.87;5.00;;;4.20;58.30;;;;;;6272023;28;20244;-82
2023/03/16 08:32:30;;;;;;;5.20;4.10;;;4.30;56.90;;;;;;6277624;28;20237;-82
2023/03/16 08:35:33;;;;;;;6.57;5.13;;;4.50;56.60;;;;;;6281496;27;20756;-81
2023/03/16 08:38:38;;;;;;;7.07;4.13;;;4.70;56.60;;;;;;6285438;28;20237;-80
2023/03/16 08:41:41;;;;;;;3.90;3.70;;;4.70;56.70;;;;;;6279503;28;20253;-81
2023/03/16 08:44:46;;;;;;;6.40;4.47;;;4.90;56.20;;;;;;6287236;28;20736;-82
2023/03/16 08:47:50;;;;;;;5.53;4.00;;;5.00;55.20;;;;;;6289766;28;20390;-81
2023/03/16 08:50:53;;;;;;;6.33;3.97;;;5.00;55.20;;;;;;6282345;28;20386;-81
2023/03/16 08:53:58;;;;;;;4.07;3.83;;;5.30;54.60;;;;;;6281764;28;20287;-80
2023/03/16 08:57:01;;;;;;;9.03;4.00;;;5.30;53.90;;;;;;6288673;28;20233;-82
2023/03/16 09:00:11;;;;;;;4.23;3.83;;;5.30;54.10;;;;;;6286171;28;20345;-81
2023/03/16 09:03:15;;;;;;;5.40;5.00;;;5.30;53.50;;;;;;6275181;28;20229;-83
2023/03/16 09:06:19;;;;;;;6.17;3.77;;;5.40;53.50;;;;;;6281333;28;20229;-79
2023/03/16 09:09:23;;;;;;;7.13;3.80;;;5.50;53.20;;;;;;6268056;28;20229;-82
2023/03/16 09:12:26;;;;;;;4.53;4.03;;;5.60;53.30;;;;;;6289464;28;20253;-83
2023/03/16 09:15:30;;;;;;;5.40;3.87;;;5.60;52.80;;;;;;6302961;28;20333;-78
2023/03/16 09:18:34;;;;;;;4.13;3.83;;;5.80;52.40;;;;;;6272592;27;20738;-77
2023/03/16 09:21:37;;;;;;;3.97;3.67;;;6.00;52.70;;;;;;6276237;28;20247;-76
2023/03/16 09:24:41;;;;;;;4.10;3.70;;;6.00;51.90;;;;;;6274390;28;20241;-81
2023/03/16 09:27:45;;;;;;;5.70;3.50;;;6.10;51.40;;;;;;6265838;28;20321;-80
2023/03/16 09:30:48;;;;;;;8.87;4.00;;;6.20;51.50;;;;;;6278563;28;20252;-81
2023/03/16 09:33:52;;;;;;;5.30;3.77;;;6.30;50.70;;;;;;6281309;28;20225;-81
2023/03/16 09:36:55;;;;;;;3.63;3.43;;;6.50;49.90;;;;;;6267304;28;20233;-82
2023/03/16 09:39:59;;;;;;;3.67;3.30;;;6.70;49.70;;;;;;6248646;28;20627;-81
2023/03/16 09:43:28;;;;;;;3.83;3.57;;;6.80;49.70;;;;;;6275996;28;20687;-81
2023/03/16 09:46:34;;;;;;;3.30;3.10;;;6.80;49.70;;;;;;6284583;28;20265;-81
2023/03/16 09:49:45;;;;;;;4.53;4.13;;;6.90;49.20;;;;;;6288932;28;20239;-83
2023/03/16 09:52:57;;;;;;;3.73;3.40;;;7.00;48.80;;;;;;6268261;28;20262;-82
2023/03/16 09:56:12;;;;;;;5.07;3.30;;;7.10;48.40;;;;;;6275030;28;20253;-81
2023/03/16 09:59:17;;;;;;;6.40;3.67;;;7.10;47.70;;;;;;6265200;28;20238;-81
2023/03/16 10:02:50;;;;;;;9.10;3.53;;;7.00;47.40;;;;;;6271708;28;20241;-81
2023/03/16 10:05:59;;;;;;;3.40;3.30;;;7.20;48.00;;;;;;6268800;28;20242;-82
2023/03/16 10:09:15;;;;;;;4.60;3.10;;;7.20;47.60;;;;;;6274429;28;20230;-82
2023/03/16 10:12:22;;;;;;;3.70;3.40;;;7.40;48.30;;;;;;6273604;28;20246;-83
2023/03/16 10:15:29;;;;;;;3.93;3.63;;;7.50;46.40;;;;;;6263982;28;20236;-83
2023/03/16 10:18:40;;;;;;;3.37;3.20;;;7.50;46.60;;;;;;6274161;28;20617;-81
2023/03/16 10:21:43;;;;;;;3.27;3.00;;;7.60;45.10;;;;;;6297641;28;20245;-83
2023/03/16 10:24:59;;;;;;;3.50;3.20;;;7.60;46.50;;;;;;6271597;28;20233;-85
2023/03/16 10:28:04;;;;;;;4.73;3.20;;;7.50;46.70;;;;;;6274565;28;20221;-85
2023/03/16 10:31:10;;;;;;;3.33;3.00;;;7.60;45.80;;;;;;6264003;28;20248;-84
2023/03/16 10:34:14;;;;;;;4.10;3.63;;;7.80;46.20;;;;;;6282920;28;20304;-82
2023/03/16 10:37:17;;;;;;;4.70;3.20;;;7.80;45.50;;;;;;6277840;28;20733;-84
2023/03/16 10:40:21;;;;;;;3.10;2.93;;;8.00;44.90;;;;;;6296400;28;20255;-83
2023/03/16 10:43:26;;;;;;;5.50;3.53;;;8.00;44.90;;;;;;6286899;28;20640;-84
2023/03/16 10:46:36;;;;;;;3.63;3.27;;;8.00;45.80;;;;;;6279907;28;20236;-83
2023/03/16 10:49:43;;;;;;;3.70;3.40;;;8.30;44.70;;;;;;6286662;28;20269;-82
2023/03/16 10:52:48;;;;;;;3.33;3.03;;;8.50;44.50;;;;;;6271955;28;20234;-81
2023/03/16 10:55:58;;;;;;;4.50;3.63;;;8.50;44.50;;;;;;6273661;28;20234;-83
2023/03/16 10:59:14;;;;;;;4.43;4.07;;;8.40;44.60;;;;;;6289406;28;20324;-83
2023/03/16 11:02:19;;;;;;;9.30;4.70;;;8.50;44.70;;;;;;6285278;28;20641;-82
2023/03/16 11:05:29;;;;;;;3.43;3.23;;;8.60;44.90;;;;;;6289145;28;20229;-84
2023/03/16 11:08:35;;;;;;;5.13;3.30;;;8.50;44.90;;;;;;6286543;28;20249;-81
2023/03/16 11:11:38;;;;;;;3.27;3.13;;;8.80;45.10;;;;;;6288518;28;20241;-82
2023/03/16 11:14:45;;;;;;;5.20;3.20;;;8.80;44.40;;;;;;6289465;28;20232;-77
2023/03/16 11:17:52;;;;;;;4.87;3.90;;;8.90;44.60;;;;;;6275634;28;20223;-79
2023/03/16 11:20:56;;;;;;;4.13;3.10;;;8.90;44.50;;;;;;6278534;28;20244;-79
2023/03/16 11:24:03;;;;;;;3.10;2.90;;;9.00;44.70;;;;;;6268133;28;20743;-78
2023/03/16 11:27:14;;;;;;;4.70;3.00;;;9.00;44.10;;;;;;6264180;28;20322;-80
2023/03/16 11:30:24;;;;;;;3.60;3.30;;;9.20;44.00;;;;;;6276676;28;25584;-82
2023/03/16 11:33:29;;;;;;;3.47;3.13;;;9.30;42.90;;;;;;6270846;28;20237;-80
2023/03/16 11:36:43;;;;;;;3.40;3.10;;;9.40;43.20;;;;;;6273156;28;20225;-79
2023/03/16 11:40:05;;;;;;;3.53;3.07;;;9.50;43.30;;;;;;6271518;28;20240;-81
2023/03/16 11:43:36;;;;;;;4.93;3.30;;;9.60;43.10;;;;;;6275821;28;20234;-82
2023/03/16 11:46:52;;;;;;;4.20;3.20;;;9.70;42.80;;;;;;6256781;28;20285;-83
2023/03/16 11:50:01;;;;;;;2.97;2.83;;;9.80;43.30;;;;;;6264347;28;20230;-83
2023/03/16 11:53:14;;;;;;;3.70;2.90;;;9.70;44.50;;;;;;6294065;28;20325;-82
2023/03/16 11:56:34;;;;;;;2.87;2.67;;;9.90;42.80;;;;;;6284608;28;20563;-82
2023/03/16 11:59:55;;;;;;;3.10;2.90;;;9.40;42.20;;;;;;6313088;28;20218;-80
2023/03/16 12:03:29;;;;;;;3.10;2.97;;;9.40;42.40;;;;;;6320608;28;20305;-80
2023/03/16 12:06:52;;;;;;;3.03;2.90;;;9.50;41.50;;;;;;6318942;28;20225;-81
2023/03/16 12:10:17;;;;;;;2.80;2.60;;;9.60;40.60;;;;;;6308056;28;20247;-82
2023/03/16 12:13:35;;;;;;;2.97;2.77;;;9.60;40.60;;;;;;6330946;28;20230;-79
2023/03/16 12:16:45;;;;;;;3.57;3.37;;;9.70;39.00;;;;;;6316636;27;20241;-80
2023/03/16 12:19:57;;;;;;;3.23;2.93;;;9.70;40.70;;;;;;6312337;28;20241;-80
2023/03/16 12:23:06;;;;;;;2.57;2.43;;;9.70;41.40;;;;;;6288972;28;20264;-79
2023/03/16 12:26:11;;;;;;;2.80;2.70;;;9.80;40.90;;;;;;6272523;28;20237;-80
2023/03/16 12:29:27;;;;;;;3.53;3.43;;;9.60;40.80;;;;;;6276919;28;20336;-80
2023/03/16 12:32:44;;;;;;;2.70;2.60;;;9.70;41.40;;;;;;6300019;28;20241;-80
2023/03/16 12:35:55;;;;;;;3.33;3.13;;;9.90;40.80;;;;;;6283167;28;20229;-79
2023/03/16 12:39:04;;;;;;;3.73;2.53;;;9.90;41.20;;;;;;6291171;28;20241;-81
2023/03/16 12:42:22;;;;;;;4.80;3.30;;;9.70;42.00;;;;;;6282733;28;20243;-82
2023/03/16 12:45:33;;;;;;;2.87;2.67;;;9.80;42.30;;;;;;6287795;28;20229;-81
2023/03/16 12:48:41;;;;;;;3.00;2.80;;;9.80;42.60;;;;;;6289893;28;20229;-81
2023/03/16 12:51:58;;;;;;;8.03;3.33;;;9.70;42.30;;;;;;6323147;28;20281;-76
2023/03/16 12:55:08;;;;;;;6.93;3.43;;;9.80;42.20;;;;;;6312789;28;20226;-81
2023/03/16 12:58:12;;;;;;;2.93;2.83;;;10.00;42.40;;;;;;6322533;28;20209;-78
2023/03/16 13:01:20;;;;;;;2.97;2.80;;;10.10;39.80;;;;;;6317866;28;20244;-78
2023/03/16 13:04:32;;;;;;;3.00;2.80;;;10.10;39.70;;;;;;6294038;28;20221;-80
2023/03/16 13:07:40;;;;;;;2.77;2.67;;;10.30;40.10;;;;;;6305549;28;20244;-82
2023/03/16 13:11:00;;;;;;;3.17;2.87;;;10.00;41.40;;;;;;6291334;28;20702;-83
2023/03/16 13:14:09;;;;;;;3.33;2.63;;;10.20;39.90;;;;;;6280512;28;20241;-82
2023/03/16 13:17:29;;;;;;;2.80;2.77;;;10.10;40.60;;;;;;6288548;28;20907;-81
2023/03/16 13:20:34;;;;;;;3.80;2.90;;;10.20;38.20;;;;;;6262459;28;20231;-82
2023/03/16 13:23:54;;;;;;;3.60;3.43;;;10.30;38.10;;;;;;6270126;28;20242;-81
2023/03/16 13:27:02;;;;;;;3.27;3.07;;;10.10;39.10;;;;;;6273888;28;20320;-81
2023/03/16 13:30:18;;;;;;;3.00;2.90;;;10.20;38.90;;;;;;6286544;28;20289;-84
2023/03/16 13:33:24;;;;;;;3.37;3.17;;;10.10;37.80;;;;;;6276913;28;20233;-82
2023/03/16 13:36:32;;;;;;;3.23;2.83;;;10.10;38.30;;;;;;6273626;28;20229;-83
2023/03/16 13:39:37;;;;;;;2.70;2.50;;;10.00;38.90;;;;;;6279401;28;20360;-82
2023/03/16 13:42:40;;;;;;;5.13;2.90;;;10.00;39.70;;;;;;6282209;28;20248;-82
2023/03/16 13:45:44;;;;;;;3.00;2.90;;;10.00;39.70;;;;;;6264591;28;20268;-80
2023/03/16 13:48:51;;;;;;;2.87;2.77;;;10.00;39.30;;;;;;6286844;28;20251;-83
2023/03/16 13:51:54;;;;;;;2.97;2.77;;;10.00;38.60;;;;;;6269913;28;20233;-83
2023/03/16 13:55:01;;;;;;;2.87;2.70;;;10.00;39.00;;;;;;6290071;28;20340;-83
2023/03/16 13:58:05;;;;;;;2.90;2.70;;;10.10;38.50;;;;;;6296009;28;20233;-83
2023/03/16 14:01:19;;;;;;;3.10;2.90;;;10.20;38.80;;;;;;6288935;28;20237;-84
2023/03/16 14:04:27;;;;;;;5.90;3.47;;;10.10;39.10;;;;;;6286968;28;20240;-82
2023/03/16 14:07:37;;;;;;;4.53;3.30;;;10.20;38.90;;;;;;6292773;28;20233;-82
2023/03/16 14:10:44;;;;;;;3.03;2.83;;;10.30;39.20;;;;;;6289615;28;20449;-81
2023/03/16 14:13:53;;;;;;;2.60;2.50;;;10.00;39.60;;;;;;6301903;28;20233;-81
2023/03/16 14:17:08;;;;;;;2.87;2.67;;;10.20;38.10;;;;;;6276831;28;20252;-82
2023/03/16 14:20:20;;;;;;;3.20;3.00;;;10.30;38.90;;;;;;6292665;28;20764;-82
2023/03/16 14:23:27;;;;;;;3.07;2.87;;;10.30;39.30;;;;;;6287085;28;20344;-82
2023/03/16 14:26:41;;;;;;;3.70;3.40;;;10.20;38.70;;;;;;6290909;28;20237;-83
2023/03/16 14:29:45;;;;;;;2.50;2.40;;;10.30;38.80;;;;;;6279994;28;20265;-84
2023/03/16 14:32:57;;;;;;;2.97;2.77;;;10.30;38.50;;;;;;6270315;28;20278;-83
2023/03/16 14:36:10;;;;;;;2.80;2.80;;;10.30;38.00;;;;;;6275231;28;20237;-80
2023/03/16 14:39:19;;;;;;;3.13;2.83;;;10.00;37.70;;;;;;6280385;28;20694;-82
2023/03/16 14:42:28;;;;;;;2.97;2.83;;;10.00;37.30;;;;;;6290475;27;20304;-81
2023/03/16 14:45:33;;;;;;;3.23;2.93;;;10.10;38.20;;;;;;6265443;28;20325;-81
2023/03/16 14:48:38;;;;;;;2.97;2.70;;;9.90;37.90;;;;;;6271852;28;20255;-81
2023/03/16 14:51:41;;;;;;;3.50;3.30;;;10.00;38.10;;;;;;6282704;28;20748;-81
2023/03/16 14:54:45;;;;;;;3.33;3.07;;;10.10;38.00;;;;;;6266505;28;20253;-81
2023/03/16 14:57:50;;;;;;;3.30;3.10;;;10.00;38.00;;;;;;6274243;28;20229;-79
2023/03/16 15:00:54;;;;;;;2.93;2.83;;;9.90;38.50;;;;;;6278485;28;20411;-81
2023/03/16 15:03:58;;;;;;;3.17;2.50;;;9.70;38.10;;;;;;6266757;28;20237;-81
2023/03/16 15:07:07;;;;;;;2.53;2.43;;;9.50;37.70;;;;;;6284328;28;20233;-83
2023/03/16 15:10:22;;;;;;;2.53;2.53;;;9.50;36.70;;;;;;6268051;28;20239;-81
2023/03/16 15:13:51;;;;;;;2.50;2.40;;;9.60;37.00;;;;;;6281325;28;20248;-82
2023/03/16 15:16:55;;;;;;;3.23;2.80;;;9.70;37.70;;;;;;6263060;28;20240;-82
2023/03/16 15:19:58;;;;;;;4.03;3.40;;;9.70;36.30;;;;;;6265504;28;20243;-81
2023/03/16 15:23:03;;;;;;;3.03;2.90;;;9.60;36.60;;;;;;6297216;28;20977;-80
2023/03/16 15:26:08;;;;;;;2.90;2.80;;;9.40;35.60;;;;;;6276461;28;20254;-81
2023/03/16 15:29:13;;;;;;;3.93;3.53;;;9.20;33.30;;;;;;6276755;28;20625;-81
2023/03/16 15:32:16;;;;;;;3.60;3.43;;;9.00;35.50;;;;;;6275711;28;20237;-82
2023/03/16 15:35:20;;;;;;;3.33;3.13;;;8.90;35.90;;;;;;6261847;28;20233;-82
2023/03/16 15:38:26;;;;;;;5.60;3.47;;;8.80;36.30;;;;;;6273180;28;20244;-82
2023/03/16 15:41:29;;;;;;;3.30;3.20;;;8.80;36.90;;;;;;6282213;28;20238;-81
2023/03/16 15:44:50;;;;;;;3.20;2.90;;;8.60;37.70;;;;;;6290172;28;20716;-80
2023/03/16 15:47:54;;;;;;;2.87;2.73;;;8.60;37.00;;;;;;6290328;28;20260;-82
2023/03/16 15:50:59;;;;;;;3.27;3.10;;;8.60;37.60;;;;;;6290930;27;20240;-80
2023/03/16 15:54:06;;;;;;;3.13;3.03;;;8.60;37.60;;;;;;6262735;28;20850;-79
2023/03/16 15:57:11;;;;;;;3.30;3.00;;;8.50;37.80;;;;;;6277863;28;20229;-81
2023/03/16 16:00:28;;;;;;;9.07;4.13;;;8.40;37.90;;;;;;6281610;28;20717;-79
2023/03/16 16:03:33;;;;;;;3.80;3.50;;;8.40;37.60;;;;;;6278082;28;20245;-81
2023/03/16 16:06:36;;;;;;;4.37;3.33;;;8.30;37.90;;;;;;6288619;28;20237;-79
2023/03/16 16:09:40;;;;;;;2.87;2.77;;;8.20;38.70;;;;;;6284573;28;20320;-80
2023/03/16 16:12:49;;;;;;;5.97;3.53;;;8.10;39.40;;;;;;6290105;28;20352;-79
2023/03/16 16:15:57;;;;;;;2.90;2.90;;;8.10;39.10;;;;;;6289646;28;20342;-82
2023/03/16 16:19:00;;;;;;;3.40;3.20;;;8.10;39.20;;;;;;6304213;27;20281;-80